createdAt,value
2022-12-25T00:02:58.080Z,24.8
2022-12-25T00:05:58.010Z,24.5
2022-12-25T00:08:58.000Z,24.3
2022-12-25T00:11:58.032Z,24.1
2022-12-25T00:14:58.020Z,24.1
2022-12-25T00:17:58.018Z,23.9
2022-12-25T00:20:58.023Z,24.5
2022-12-25T00:23:58.032Z,24.3
2022-12-25T00:26:58.033Z,25
2022-12-25T00:29:58.071Z,24.8
2022-12-25T00:32:58.054Z,25.3
2022-12-25T00:35:58.059Z,24.6
2022-12-25T00:38:58.058Z,24.2
2022-12-25T00:41:58.054Z,25.6
2022-12-25T00:44:58.064Z,26
2022-12-25T00:47:58.095Z,25.1
2022-12-25T00:50:58.073Z,23.8
2022-12-25T00:53:58.077Z,22.4
2022-12-25T00:56:58.072Z,23.7
2022-12-25T00:59:58.076Z,23
2022-12-25T01:02:58.210Z,23.1
2022-12-25T01:05:58.115Z,23.7
2022-12-25T01:08:58.090Z,23.2
2022-12-25T01:11:58.103Z,23.2
2022-12-25T01:14:58.089Z,22.6
2022-12-25T01:17:58.095Z,21.9
2022-12-25T01:20:58.096Z,21.6
2022-12-25T01:23:58.113Z,21.5
2022-12-25T01:26:58.095Z,21.6
2022-12-25T01:29:58.094Z,21.6
2022-12-25T01:32:58.094Z,21.4
2022-12-25T01:35:58.093Z,20.5
2022-12-25T01:38:58.093Z,20.1
2022-12-25T01:41:58.115Z,20.8
2022-12-25T01:44:58.098Z,21.6
2022-12-25T01:47:58.105Z,21
2022-12-25T01:50:58.098Z,20.8
2022-12-25T01:53:58.103Z,20.8
2022-12-25T01:56:58.102Z,21.1
2022-12-25T01:59:58.130Z,20.7
2022-12-25T02:02:58.227Z,20.8
2022-12-25T02:05:58.120Z,20.8
2022-12-25T02:08:58.111Z,21.1
2022-12-25T02:11:58.110Z,21.4
2022-12-25T02:15:03.039Z,22.6
2022-12-25T02:17:58.144Z,21.8
2022-12-25T02:20:58.116Z,21.1
2022-12-25T02:23:58.140Z,21.3
2022-12-25T02:26:58.122Z,21.2
2022-12-25T02:29:58.130Z,20.3
2022-12-25T02:32:58.126Z,20.6
2022-12-25T02:35:58.160Z,19.9
2022-12-25T02:38:58.134Z,19.9
2022-12-25T02:41:58.149Z,20.7
2022-12-25T02:44:58.137Z,21.5
2022-12-25T02:47:58.141Z,21.8
2022-12-25T02:50:58.144Z,20.7
2022-12-25T02:53:58.168Z,19.8
2022-12-25T02:56:58.143Z,20.8
2022-12-25T02:59:58.143Z,21
2022-12-25T03:02:58.191Z,19.3
2022-12-25T03:05:58.151Z,19.3
2022-12-25T03:08:58.147Z,19.3
2022-12-25T03:11:58.179Z,19.7
2022-12-25T03:14:58.156Z,19.3
2022-12-25T03:17:58.148Z,18.9
2022-12-25T03:20:58.164Z,19.9
2022-12-25T03:23:58.156Z,19.1
2022-12-25T03:26:58.158Z,19.1
2022-12-25T03:29:58.283Z,18.9
2022-12-25T03:32:58.156Z,18.9
2022-12-25T03:35:58.166Z,19.3
2022-12-25T03:38:58.264Z,18
2022-12-25T03:41:58.160Z,18.6
2022-12-25T03:44:58.163Z,18.9
2022-12-25T03:47:58.188Z,18.5
2022-12-25T03:50:58.162Z,18.9
2022-12-25T03:53:58.358Z,17.9
2022-12-25T03:56:58.163Z,18.4
2022-12-25T03:59:58.179Z,17.4
2022-12-25T04:02:58.225Z,18
2022-12-25T04:05:58.215Z,17.2
2022-12-25T04:08:58.169Z,18.3
2022-12-25T04:12:02.381Z,17.9
2022-12-25T04:14:58.187Z,17
2022-12-25T04:17:58.181Z,16.3
2022-12-25T04:20:58.174Z,16.4
2022-12-25T04:23:58.209Z,16.2
2022-12-25T04:26:58.180Z,15.9
2022-12-25T04:29:58.181Z,15.8
2022-12-25T04:32:58.178Z,15.6
2022-12-25T04:35:58.182Z,14.9
2022-12-25T04:38:58.185Z,14.5
2022-12-25T04:41:58.210Z,14.7
2022-12-25T04:44:58.185Z,13.9
2022-12-25T04:47:58.192Z,14.6
2022-12-25T04:50:58.196Z,15.2
2022-12-25T04:53:58.201Z,14.4
2022-12-25T04:56:58.194Z,16.1
2022-12-25T04:59:58.219Z,15.9
2022-12-25T05:02:58.374Z,18.2
2022-12-25T05:05:58.205Z,15.8
2022-12-25T05:08:58.199Z,15.2
2022-12-25T05:11:58.202Z,16.3
2022-12-25T05:14:58.201Z,16.8
2022-12-25T05:17:58.225Z,16.9
2022-12-25T05:20:58.201Z,17.1
2022-12-25T05:23:58.247Z,18
2022-12-25T05:26:58.206Z,18.5
2022-12-25T05:29:58.214Z,18.4
2022-12-25T05:32:58.217Z,18.8
2022-12-25T05:35:58.238Z,18.3
2022-12-25T05:38:58.212Z,17.8
2022-12-25T05:41:58.216Z,17.8
2022-12-25T05:44:58.211Z,18.3
2022-12-25T05:47:58.219Z,18.7
2022-12-25T05:50:58.218Z,18
2022-12-25T05:53:58.247Z,18.5
2022-12-25T05:56:58.222Z,17.6
2022-12-25T05:59:58.222Z,17.9
2022-12-25T06:02:58.347Z,18.9
2022-12-25T06:05:58.226Z,18.3
2022-12-25T06:08:58.236Z,18.6
2022-12-25T06:11:58.253Z,18.9
2022-12-25T06:14:58.233Z,19
2022-12-25T06:17:58.232Z,18.7
2022-12-25T06:20:58.246Z,19.5
2022-12-25T06:23:58.294Z,19.3
2022-12-25T06:26:58.236Z,18.9
2022-12-25T06:29:58.263Z,18.6
2022-12-25T06:32:58.237Z,19.4
2022-12-25T06:35:58.255Z,20.5
2022-12-25T06:38:58.244Z,21.6
2022-12-25T06:41:58.256Z,22.2
2022-12-25T06:44:58.247Z,22.4
2022-12-25T06:47:58.283Z,23.6
2022-12-25T06:50:58.260Z,21.5
2022-12-25T06:53:58.256Z,21.6
2022-12-25T06:56:58.255Z,23.6
2022-12-25T06:59:58.260Z,19.8
2022-12-25T07:02:58.398Z,19.2
2022-12-25T07:05:58.303Z,19.5
2022-12-25T07:08:58.309Z,17.9
2022-12-25T07:11:58.268Z,18
2022-12-25T07:14:58.263Z,17.8
2022-12-25T07:17:58.278Z,17.9
2022-12-25T07:20:58.267Z,17
2022-12-25T07:23:58.297Z,16
2022-12-25T07:26:58.270Z,15.7
2022-12-25T07:29:58.273Z,16.5
2022-12-25T07:32:58.308Z,15.9
2022-12-25T07:35:58.293Z,15.5
2022-12-25T07:38:58.281Z,15.8
2022-12-25T07:41:58.321Z,14.8
2022-12-25T07:44:58.334Z,15.7
2022-12-25T07:48:02.818Z,15.9
2022-12-25T07:50:58.285Z,14.9
2022-12-25T07:53:58.278Z,15.4
2022-12-25T07:56:58.288Z,15.6
2022-12-25T07:59:58.315Z,15.4
2022-12-25T08:02:58.448Z,15.5
2022-12-25T08:05:58.288Z,15.2
2022-12-25T08:08:58.290Z,14.6
2022-12-25T08:11:58.308Z,14.6
2022-12-25T08:14:58.295Z,14.6
2022-12-25T08:17:58.318Z,13.7
2022-12-25T08:20:58.410Z,14
2022-12-25T08:23:58.308Z,14.3
2022-12-25T08:26:58.301Z,15.8
2022-12-25T08:29:58.310Z,18.3
2022-12-25T08:32:58.302Z,20.9
2022-12-25T08:35:58.339Z,19
2022-12-25T08:39:02.375Z,17.5
2022-12-25T08:41:58.315Z,15.8
2022-12-25T08:44:58.325Z,15.1
2022-12-25T08:47:58.316Z,12.7
2022-12-25T08:50:58.328Z,12.7
2022-12-25T08:53:58.347Z,12.5
2022-12-25T08:57:02.585Z,12
2022-12-25T08:59:58.325Z,11.2
2022-12-25T09:02:58.419Z,10.5
2022-12-25T09:05:58.329Z,9.9
2022-12-25T09:08:58.329Z,9.7
2022-12-25T09:11:58.359Z,9.8
2022-12-25T09:14:58.340Z,9.9
2022-12-25T09:17:58.344Z,9.2
2022-12-25T09:20:58.347Z,9.1
2022-12-25T09:23:58.348Z,9.4
2022-12-25T09:26:58.355Z,8.3
2022-12-25T09:29:58.381Z,8.3
2022-12-25T09:32:58.438Z,7.9
2022-12-25T09:35:58.361Z,7.5
2022-12-25T09:38:58.363Z,7.6
2022-12-25T09:41:58.370Z,7.4
2022-12-25T09:44:58.364Z,7.6
2022-12-25T09:47:58.390Z,6.9
2022-12-25T09:50:58.382Z,7.5
2022-12-25T09:53:58.387Z,7.1
2022-12-25T09:56:58.379Z,7
2022-12-25T09:59:58.383Z,7.5
2022-12-25T10:02:58.701Z,8.4
2022-12-25T10:05:58.421Z,9.8
2022-12-25T10:08:58.394Z,8.6
2022-12-25T10:11:58.403Z,7.4
2022-12-25T10:14:58.400Z,8.4
2022-12-25T10:17:58.408Z,8.5
2022-12-25T10:20:58.402Z,11.2
2022-12-25T10:23:58.434Z,12.3
2022-12-25T10:26:58.410Z,13.4
2022-12-25T10:29:58.415Z,18.1
2022-12-25T10:32:58.420Z,28.3
2022-12-25T10:35:58.426Z,22.8
2022-12-25T10:38:58.425Z,18
2022-12-25T10:41:58.452Z,15.7
2022-12-25T10:44:58.433Z,10.7
2022-12-25T10:48:03.486Z,7.7
2022-12-25T10:50:58.435Z,7.5
2022-12-25T10:53:58.440Z,7.4
2022-12-25T10:56:58.462Z,8.5
2022-12-25T10:59:58.469Z,11
2022-12-25T11:02:58.725Z,8.8
2022-12-25T11:05:58.456Z,8.3
2022-12-25T11:08:58.460Z,10.1
2022-12-25T11:11:58.462Z,9.3
2022-12-25T11:14:58.467Z,9.7
2022-12-25T11:17:58.492Z,10
2022-12-25T11:20:58.472Z,10.4
2022-12-25T11:23:58.473Z,7.4
2022-12-25T11:26:58.479Z,7
2022-12-25T11:29:58.477Z,8.2
2022-12-25T11:32:58.483Z,8.7
2022-12-25T11:35:58.510Z,8.6
2022-12-25T11:38:58.492Z,8.1
2022-12-25T11:41:58.491Z,6.4
2022-12-25T11:44:58.495Z,7
2022-12-25T11:47:58.499Z,7.3
2022-12-25T11:50:58.517Z,7.1
2022-12-25T11:53:58.528Z,7.3
2022-12-25T11:56:58.509Z,7.3
2022-12-25T11:59:58.509Z,10
2022-12-25T12:02:58.620Z,10.4
2022-12-25T12:05:58.519Z,11.9
2022-12-25T12:08:58.513Z,9.7
2022-12-25T12:11:58.540Z,7.8
2022-12-25T12:14:58.519Z,7.4
2022-12-25T12:17:58.514Z,7.8
2022-12-25T12:20:58.523Z,6.9
2022-12-25T12:23:58.524Z,7.7
2022-12-25T12:26:58.531Z,7.5
2022-12-25T12:29:58.551Z,7.6
2022-12-25T12:32:58.530Z,7.2
2022-12-25T12:35:58.546Z,7.1
2022-12-25T12:38:58.539Z,6.3
2022-12-25T12:41:58.545Z,6.5
2022-12-25T12:44:58.550Z,7.8
2022-12-25T12:47:58.588Z,7.1
2022-12-25T12:50:58.561Z,6.5
2022-12-25T12:53:58.566Z,6.5
2022-12-25T12:56:58.563Z,6.6
2022-12-25T13:00:00.988Z,6.7
2022-12-25T13:02:58.730Z,6.6
2022-12-25T13:05:58.603Z,6.9
2022-12-25T13:08:58.577Z,6.7
2022-12-25T13:11:58.587Z,6.9
2022-12-25T13:14:58.600Z,6.7
2022-12-25T13:17:58.599Z,6.6
2022-12-25T13:20:58.598Z,7.1
2022-12-25T13:23:58.621Z,6.8
2022-12-25T13:26:58.606Z,7.3
2022-12-25T13:29:58.662Z,8
2022-12-25T13:32:58.640Z,7
2022-12-25T13:35:58.634Z,6.5
2022-12-25T13:38:58.643Z,6.9
2022-12-25T13:41:58.663Z,7.1
2022-12-25T13:44:58.650Z,7.3
2022-12-25T13:47:58.647Z,7.8
2022-12-25T13:50:58.644Z,10
2022-12-25T13:53:58.654Z,11.4
2022-12-25T13:56:58.659Z,10.6
2022-12-25T13:59:58.699Z,10.4
2022-12-25T14:02:58.775Z,9.7
2022-12-25T14:05:58.675Z,10.3
2022-12-25T14:08:58.690Z,11.6
2022-12-25T14:11:58.702Z,12
2022-12-25T14:14:58.692Z,11.7
2022-12-25T14:17:58.715Z,11.7
2022-12-25T14:20:58.724Z,11.4
2022-12-25T14:23:58.720Z,11.2
2022-12-25T14:26:58.709Z,12.3
2022-12-25T14:29:58.719Z,12
2022-12-25T14:32:58.733Z,11.6
2022-12-25T14:35:58.756Z,12.3
2022-12-25T14:38:58.733Z,12.5
2022-12-25T14:41:58.732Z,11.9
2022-12-25T14:44:58.748Z,12.9
2022-12-25T14:47:58.751Z,12.6
2022-12-25T14:50:58.764Z,13
2022-12-25T14:53:58.785Z,11.7
2022-12-25T14:56:58.774Z,13.1
2022-12-25T14:59:58.778Z,12.2
2022-12-25T15:02:58.893Z,12.9
2022-12-25T15:05:58.818Z,12.3
2022-12-25T15:08:58.798Z,13.4
2022-12-25T15:11:58.826Z,13.7
2022-12-25T15:14:58.803Z,12.7
2022-12-25T15:17:58.812Z,12.2
2022-12-25T15:20:58.825Z,12
2022-12-25T15:23:58.829Z,12.3
2022-12-25T15:26:58.828Z,12.6
2022-12-25T15:30:12.655Z,13.5
2022-12-25T15:32:58.849Z,13
2022-12-25T15:35:58.857Z,14.8
2022-12-25T15:38:58.865Z,14.5
2022-12-25T15:41:58.868Z,15.4
2022-12-25T15:44:58.877Z,14
2022-12-25T15:47:58.901Z,15
2022-12-25T15:50:58.881Z,15.5
2022-12-25T15:53:58.895Z,14.5
2022-12-25T15:56:58.895Z,15.1
2022-12-25T15:59:58.902Z,16.7
2022-12-25T16:02:59.216Z,15.9
2022-12-25T16:05:58.941Z,15.6
2022-12-25T16:08:58.925Z,14.4
2022-12-25T16:11:58.932Z,15.7
2022-12-25T16:14:58.939Z,14.6
2022-12-25T16:17:58.973Z,15.8
2022-12-25T16:20:58.957Z,15.4
2022-12-25T16:23:59.109Z,14.9
2022-12-25T16:26:58.970Z,15.5
2022-12-25T16:29:58.997Z,13.9
2022-12-25T16:32:58.991Z,14.9
2022-12-25T16:35:59.010Z,16.3
2022-12-25T16:38:59.004Z,15.9
2022-12-25T16:41:59.045Z,16.2
2022-12-25T16:44:59.019Z,16.8
2022-12-25T16:47:59.039Z,15.9
2022-12-25T16:50:59.071Z,16.8
2022-12-25T16:53:59.064Z,18.3
2022-12-25T16:56:59.054Z,17.7
2022-12-25T16:59:59.212Z,15.3
2022-12-25T17:02:59.194Z,16.6
2022-12-25T17:05:59.084Z,16.9
2022-12-25T17:08:59.094Z,17.2
2022-12-25T17:11:59.099Z,16.6
2022-12-25T17:14:59.112Z,17.2
2022-12-25T17:17:59.144Z,16.5
2022-12-25T17:20:59.123Z,19
2022-12-25T17:24:03.061Z,16
2022-12-25T17:26:59.144Z,17.2
2022-12-25T17:29:59.172Z,18.9
2022-12-25T17:32:59.166Z,18.7
2022-12-25T17:36:03.637Z,18.7
2022-12-25T17:38:59.182Z,18.5
2022-12-25T17:41:59.190Z,18.2
2022-12-25T17:44:59.208Z,21.8
2022-12-25T17:47:59.213Z,20.4
2022-12-25T17:50:59.223Z,18.7
2022-12-25T17:53:59.252Z,18.8
2022-12-25T17:56:59.233Z,19
2022-12-25T17:59:59.241Z,19.2
2022-12-25T18:02:59.364Z,19
2022-12-25T18:05:59.261Z,18.1
2022-12-25T18:08:59.291Z,18.7
2022-12-25T18:11:59.307Z,18.9
2022-12-25T18:14:59.299Z,18.7
2022-12-25T18:17:59.305Z,18.8
2022-12-25T18:20:59.313Z,17.6
2022-12-25T18:23:59.324Z,16.7
2022-12-25T18:26:59.339Z,16.2
2022-12-25T18:29:59.376Z,17.1
2022-12-25T18:32:59.356Z,16.6
2022-12-25T18:35:59.368Z,16.5
2022-12-25T18:38:59.376Z,17.8
2022-12-25T18:41:59.388Z,18.3
2022-12-25T18:44:59.403Z,16.3
2022-12-25T18:47:59.434Z,18.2
2022-12-25T18:50:59.426Z,14.8
2022-12-25T18:53:59.435Z,15.4
2022-12-25T18:57:03.711Z,14.4
2022-12-25T18:59:59.453Z,14.7
2022-12-25T19:02:59.760Z,21.1
2022-12-25T19:05:59.501Z,18
2022-12-25T19:08:59.497Z,14.6
2022-12-25T19:11:59.514Z,15.4
2022-12-25T19:14:59.525Z,16.9
2022-12-25T19:17:59.529Z,15.3
2022-12-25T19:20:59.556Z,16
2022-12-25T19:23:59.583Z,15.8
2022-12-25T19:26:59.573Z,14.4
2022-12-25T19:29:59.583Z,14.4
2022-12-25T19:32:59.605Z,14.1
2022-12-25T19:35:59.606Z,14
2022-12-25T19:38:59.637Z,12.9
2022-12-25T19:41:59.658Z,13.3
2022-12-25T19:44:59.654Z,12.7
2022-12-25T19:47:59.665Z,12.8
2022-12-25T19:50:59.676Z,13.3
2022-12-25T19:53:59.681Z,13.3
2022-12-25T19:56:59.710Z,13.3
2022-12-25T19:59:59.733Z,14
2022-12-25T20:02:59.837Z,12.9
2022-12-25T20:05:59.740Z,12.5
2022-12-25T20:08:59.790Z,12.4
2022-12-25T20:11:59.779Z,12.6
2022-12-25T20:14:59.787Z,12.6
2022-12-25T20:17:59.821Z,12.7
2022-12-25T20:20:59.810Z,12.1
2022-12-25T20:23:59.825Z,11.8
2022-12-25T20:26:59.836Z,11.6
2022-12-25T20:29:59.843Z,10.9
2022-12-25T20:32:59.857Z,10.7
2022-12-25T20:36:00.047Z,10.1
2022-12-25T20:38:59.874Z,10.2
2022-12-25T20:41:59.891Z,10.3
2022-12-25T20:44:59.888Z,9.4
2022-12-25T20:47:59.896Z,9
2022-12-25T20:50:59.894Z,8.5
2022-12-25T20:53:59.924Z,8.1
2022-12-25T20:56:59.907Z,7.7
2022-12-25T20:59:59.919Z,6.5
2022-12-25T21:03:00.057Z,6
2022-12-25T21:05:59.925Z,5.9
2022-12-25T21:08:59.933Z,5.5
2022-12-25T21:11:59.987Z,5.4
2022-12-25T21:14:59.942Z,5.4
2022-12-25T21:17:59.955Z,5.6
2022-12-25T21:20:59.956Z,5.4
2022-12-25T21:23:59.964Z,5.5
2022-12-25T21:26:59.999Z,5.4
2022-12-25T21:29:59.995Z,5.5
2022-12-25T21:32:59.974Z,5.2
2022-12-25T21:35:59.973Z,5.2
2022-12-25T21:38:59.984Z,5.5
2022-12-25T21:41:59.999Z,5.5
2022-12-25T21:44:59.996Z,5
2022-12-25T21:48:02.810Z,5
2022-12-25T21:51:00.000Z,4.6
2022-12-25T21:54:00.005Z,5.3
2022-12-25T21:57:00.068Z,5.1
2022-12-25T22:00:00.022Z,5
2022-12-25T22:03:00.109Z,5
2022-12-25T22:06:00.051Z,5
2022-12-25T22:09:00.046Z,5
2022-12-25T22:12:00.042Z,5.2
2022-12-25T22:15:00.042Z,5.3
2022-12-25T22:18:00.107Z,5.4
2022-12-25T22:21:00.051Z,6
2022-12-25T22:24:00.141Z,5.9
2022-12-25T22:27:00.074Z,6.4
2022-12-25T22:30:00.056Z,5.9
2022-12-25T22:33:00.098Z,5.8
2022-12-25T22:36:00.125Z,5.3
2022-12-25T22:39:00.106Z,5.1
2022-12-25T22:42:00.123Z,5.1
2022-12-25T22:45:00.110Z,5
2022-12-25T22:48:00.114Z,4.9
2022-12-25T22:51:00.110Z,4.9
2022-12-25T22:54:03.501Z,4.8
2022-12-25T22:57:00.123Z,5.1
2022-12-25T23:00:00.158Z,4.9
2022-12-25T23:03:00.328Z,4.8
2022-12-25T23:06:00.131Z,4.9
2022-12-25T23:09:00.132Z,4.7
2022-12-25T23:12:00.128Z,5.1
2022-12-25T23:15:00.160Z,4.6
2022-12-25T23:18:00.150Z,5.3
2022-12-25T23:21:00.126Z,4.8
2022-12-25T23:24:00.134Z,5.1
2022-12-25T23:27:00.162Z,5.4
2022-12-25T23:30:00.157Z,5.4
2022-12-25T23:33:00.145Z,4.9
2022-12-25T23:36:00.180Z,5.7
2022-12-25T23:39:05.046Z,5.4
2022-12-25T23:42:00.160Z,5
2022-12-25T23:45:00.203Z,5.1
2022-12-25T23:48:00.167Z,5.3
2022-12-25T23:51:00.169Z,5.6
2022-12-25T23:54:00.202Z,5.2
2022-12-25T23:57:00.191Z,5.1
